createdAt,value
2023-04-19T00:01:11.160Z,5.8
2023-04-19T00:04:11.302Z,5.5
2023-04-19T00:07:11.177Z,6.6
2023-04-19T00:10:11.173Z,7
2023-04-19T00:13:11.188Z,6.7
2023-04-19T00:16:11.231Z,6
2023-04-19T00:19:11.197Z,6.3
2023-04-19T00:22:11.208Z,5.8
2023-04-19T00:25:11.203Z,5.8
2023-04-19T00:28:11.212Z,6.5
2023-04-19T00:31:11.216Z,5.8
2023-04-19T00:34:11.204Z,6.4
2023-04-19T00:37:11.221Z,6.7
2023-04-19T00:40:11.220Z,6.2
2023-04-19T00:43:11.230Z,6.9
2023-04-19T00:46:11.251Z,7
2023-04-19T00:49:11.239Z,6.5
2023-04-19T00:52:11.238Z,6.8
2023-04-19T00:55:11.227Z,7.8
2023-04-19T00:58:11.232Z,6.1
2023-04-19T01:01:11.270Z,6.6
2023-04-19T01:04:11.297Z,6.2
2023-04-19T01:07:11.256Z,6.8
2023-04-19T01:10:11.281Z,6.8
2023-04-19T01:13:11.272Z,6.2
2023-04-19T01:16:11.305Z,7.4
2023-04-19T01:19:11.269Z,8
2023-04-19T01:22:11.281Z,7
2023-04-19T01:25:11.280Z,5.4
2023-04-19T01:28:11.281Z,7.4
2023-04-19T01:31:11.332Z,7.8
2023-04-19T01:34:11.296Z,6.4
2023-04-19T01:37:11.295Z,6.9
2023-04-19T01:40:11.317Z,6
2023-04-19T01:43:11.299Z,6.7
2023-04-19T01:46:11.320Z,5.7
2023-04-19T01:49:11.316Z,5.8
2023-04-19T01:52:11.319Z,7.2
2023-04-19T01:55:11.320Z,7.8
2023-04-19T01:58:11.322Z,6
2023-04-19T02:01:11.346Z,6.9
2023-04-19T02:04:11.347Z,7.3
2023-04-19T02:07:11.327Z,7
2023-04-19T02:10:11.333Z,6.2
2023-04-19T02:13:11.331Z,5.6
2023-04-19T02:16:11.395Z,6.8
2023-04-19T02:19:11.341Z,7
2023-04-19T02:22:11.350Z,6.9
2023-04-19T02:25:11.353Z,7.2
2023-04-19T02:28:11.350Z,6.7
2023-04-19T02:31:11.357Z,8.2
2023-04-19T02:34:11.366Z,8
2023-04-19T02:37:11.374Z,7.9
2023-04-19T02:40:11.385Z,6.7
2023-04-19T02:43:11.401Z,7.5
2023-04-19T02:46:11.403Z,7.9
2023-04-19T02:49:11.402Z,9.3
2023-04-19T02:52:11.423Z,5.8
2023-04-19T02:55:11.415Z,6.8
2023-04-19T02:58:11.421Z,7.6
2023-04-19T03:01:11.442Z,8.5
2023-04-19T03:04:11.446Z,5.9
2023-04-19T03:07:11.438Z,6.8
2023-04-19T03:10:11.434Z,8
2023-04-19T03:13:11.451Z,7
2023-04-19T03:16:11.508Z,6.9
2023-04-19T03:19:11.457Z,8.5
2023-04-19T03:22:11.459Z,7.2
2023-04-19T03:25:11.461Z,7.8
2023-04-19T03:28:11.464Z,7
2023-04-19T03:31:11.483Z,6.6
2023-04-19T03:34:11.472Z,7.3
2023-04-19T03:37:11.475Z,8.3
2023-04-19T03:40:11.491Z,7.8
2023-04-19T03:43:11.480Z,7.5
2023-04-19T03:46:11.490Z,8.1
2023-04-19T03:49:11.481Z,5.9
2023-04-19T03:52:11.502Z,6.9
2023-04-19T03:55:11.486Z,8.1
2023-04-19T03:58:11.488Z,6.8
2023-04-19T04:01:11.489Z,7
2023-04-19T04:04:11.590Z,6.3
2023-04-19T04:07:11.506Z,7.8
2023-04-19T04:10:11.510Z,7.1
2023-04-19T04:13:11.509Z,7.3
2023-04-19T04:16:11.574Z,9.5
2023-04-19T04:19:11.521Z,6.8
2023-04-19T04:22:11.525Z,7.3
2023-04-19T04:25:11.532Z,6.4
2023-04-19T04:28:11.547Z,7
2023-04-19T04:31:11.551Z,9.4
2023-04-19T04:34:11.568Z,8.1
2023-04-19T04:37:11.568Z,7
2023-04-19T04:40:11.580Z,5.9
2023-04-19T04:43:11.579Z,7.6
2023-04-19T04:46:11.595Z,7.1
2023-04-19T04:49:11.591Z,7.2
2023-04-19T04:52:11.611Z,6.5
2023-04-19T04:55:11.600Z,5.6
2023-04-19T04:58:11.598Z,6
2023-04-19T05:01:11.699Z,7.5
2023-04-19T05:04:11.663Z,6.2
2023-04-19T05:07:11.621Z,6.5
2023-04-19T05:10:11.622Z,5.3
2023-04-19T05:13:11.617Z,5.6
2023-04-19T05:16:11.656Z,6.9
2023-04-19T05:19:11.637Z,7.7
2023-04-19T05:22:11.644Z,6.5
2023-04-19T05:25:11.661Z,6.7
2023-04-19T05:28:11.651Z,6.4
2023-04-19T05:31:11.663Z,4.9
2023-04-19T05:34:11.672Z,5.3
2023-04-19T05:37:11.688Z,5.4
2023-04-19T05:40:11.674Z,5.9
2023-04-19T05:43:11.672Z,5.6
2023-04-19T05:46:11.714Z,5.3
2023-04-19T05:49:11.681Z,6.8
2023-04-19T05:52:11.683Z,7.1
2023-04-19T05:55:11.718Z,4.9
2023-04-19T05:58:11.722Z,5.2
2023-04-19T06:01:11.694Z,6.3
2023-04-19T06:04:11.829Z,5.2
2023-04-19T06:07:21.990Z,4.8
2023-04-19T06:10:11.716Z,4
2023-04-19T06:13:11.723Z,4.2
2023-04-19T06:16:11.751Z,4.4
2023-04-19T06:19:11.735Z,4.2
2023-04-19T06:22:11.730Z,4
2023-04-19T06:25:11.735Z,4.5
2023-04-19T06:28:11.745Z,5.3
2023-04-19T06:31:11.876Z,3.9
2023-04-19T06:34:11.751Z,4.1
2023-04-19T06:37:11.769Z,4.1
2023-04-19T06:40:11.755Z,3.8
2023-04-19T06:43:11.779Z,5.2
2023-04-19T06:46:11.903Z,4.1
2023-04-19T06:49:11.783Z,6.6
2023-04-19T06:52:11.788Z,4.2
2023-04-19T06:55:11.783Z,3.7
2023-04-19T06:58:11.800Z,2.9
2023-04-19T07:01:11.819Z,3.8
2023-04-19T07:04:11.947Z,3.7
2023-04-19T07:07:11.808Z,3.6
2023-04-19T07:10:11.811Z,3.5
2023-04-19T07:13:11.810Z,4.1
2023-04-19T07:16:11.862Z,3.2
2023-04-19T07:19:11.810Z,4.1
2023-04-19T07:22:13.060Z,3.8
2023-04-19T07:25:11.836Z,3.6
2023-04-19T07:28:11.840Z,3.2
2023-04-19T07:31:11.842Z,3.8
2023-04-19T07:34:11.834Z,4.4
2023-04-19T07:37:11.840Z,4.5
2023-04-19T07:40:11.842Z,4.5
2023-04-19T07:43:11.852Z,4.6
2023-04-19T07:46:11.912Z,3.6
2023-04-19T07:49:11.853Z,4.9
2023-04-19T07:52:11.858Z,4.5
2023-04-19T07:55:11.866Z,3.6
2023-04-19T07:58:11.873Z,3.8
2023-04-19T08:01:11.898Z,3.7
2023-04-19T08:04:12.020Z,3.8
2023-04-19T08:07:11.890Z,3.8
2023-04-19T08:10:11.896Z,3.4
2023-04-19T08:13:11.896Z,2.8
2023-04-19T08:19:11.905Z,3.9
2023-04-19T08:22:11.904Z,3.7
2023-04-19T08:25:11.911Z,3.1
2023-04-19T08:28:11.913Z,5.3
2023-04-19T08:31:11.926Z,3.9
2023-04-19T08:34:11.926Z,3
2023-04-19T08:37:11.932Z,3.4
2023-04-19T08:40:11.933Z,3.6
2023-04-19T08:43:11.939Z,5.4
2023-04-19T08:46:11.964Z,3.2
2023-04-19T08:49:11.964Z,4.1
2023-04-19T08:52:11.958Z,3.6
2023-04-19T08:55:11.966Z,3.6
2023-04-19T08:58:15.323Z,4.4
2023-04-19T09:01:17.257Z,3.6
2023-04-19T09:04:34.311Z,3.6
2023-04-19T09:07:11.983Z,4.3
2023-04-19T09:10:11.972Z,3.4
2023-04-19T09:13:11.978Z,4.9
2023-04-19T09:16:11.994Z,4.1
2023-04-19T09:19:22.838Z,4
2023-04-19T09:22:11.993Z,3.3
2023-04-19T09:28:12.004Z,4.1
2023-04-19T09:31:30.261Z,3.7
2023-04-19T09:34:12.017Z,4.7
2023-04-19T09:37:17.713Z,3.2
2023-04-19T09:40:12.020Z,4
2023-04-19T09:46:12.054Z,6
2023-04-19T09:49:20.295Z,3.8
2023-04-19T09:52:12.037Z,4.3
2023-04-19T09:55:22.699Z,4.5
2023-04-19T09:58:12.046Z,4
2023-04-19T10:01:15.243Z,3.2
2023-04-19T10:04:23.997Z,4.6
2023-04-19T10:10:19.054Z,5.3
2023-04-19T10:13:19.499Z,3.9
2023-04-19T10:16:19.329Z,4.4
2023-04-19T10:19:12.092Z,3.6
2023-04-19T10:22:12.081Z,3.9
2023-04-19T10:25:12.103Z,3.8
2023-04-19T10:28:12.107Z,3.4
2023-04-19T10:31:12.096Z,4.1
2023-04-19T10:34:12.107Z,4.2
2023-04-19T10:37:12.113Z,4.2
2023-04-19T10:40:12.109Z,2.7
2023-04-19T10:43:12.126Z,3.1
2023-04-19T10:46:12.159Z,3.8
2023-04-19T10:49:12.136Z,3.9
2023-04-19T10:52:12.134Z,3.9
2023-04-19T10:55:12.141Z,3.8
2023-04-19T10:58:12.173Z,3
2023-04-19T11:01:12.153Z,3.6
2023-04-19T11:04:12.258Z,4.6
2023-04-19T11:07:12.155Z,5.5
2023-04-19T11:10:12.302Z,5.1
2023-04-19T11:13:12.168Z,4.1
2023-04-19T11:16:12.200Z,3.3
2023-04-19T11:19:12.165Z,3.2
2023-04-19T11:22:12.176Z,4.4
2023-04-19T11:25:12.224Z,4.9
2023-04-19T11:28:12.201Z,5
2023-04-19T11:31:12.206Z,4.8
2023-04-19T11:34:12.190Z,4
2023-04-19T11:37:12.194Z,5.1
2023-04-19T11:40:12.201Z,4.9
2023-04-19T11:43:12.208Z,3.6
2023-04-19T11:46:12.384Z,4.6
2023-04-19T11:49:12.215Z,3.6
2023-04-19T11:52:12.211Z,5.1
2023-04-19T11:55:12.217Z,4.5
2023-04-19T11:58:12.233Z,6
2023-04-19T12:01:12.234Z,5
2023-04-19T12:04:12.420Z,4.5
2023-04-19T12:07:12.232Z,4.6
2023-04-19T12:10:12.257Z,6.2
2023-04-19T12:13:12.257Z,5.1
2023-04-19T12:16:12.253Z,4.3
2023-04-19T12:19:12.255Z,5.1
2023-04-19T12:22:12.260Z,3.8
2023-04-19T12:25:12.257Z,4.1
2023-04-19T12:28:12.297Z,5
2023-04-19T12:31:12.276Z,6
2023-04-19T12:34:12.276Z,5.4
2023-04-19T12:37:12.296Z,4.5
2023-04-19T12:40:12.295Z,4.6
2023-04-19T12:43:12.305Z,5
2023-04-19T12:46:12.343Z,5.6
2023-04-19T12:49:12.293Z,4.5
2023-04-19T12:52:12.297Z,4.7
2023-04-19T12:55:12.296Z,4.3
2023-04-19T12:58:12.325Z,4.9
2023-04-19T13:01:12.318Z,5.5
2023-04-19T13:04:12.533Z,4.6
2023-04-19T13:07:12.314Z,6.2
2023-04-19T13:10:12.317Z,4.4
2023-04-19T13:13:12.337Z,6.1
2023-04-19T13:16:12.341Z,4.9
2023-04-19T13:19:12.340Z,4.3
2023-04-19T13:22:12.364Z,4.6
2023-04-19T13:25:12.344Z,5.1
2023-04-19T13:28:12.387Z,5.4
2023-04-19T13:31:12.420Z,5.1
2023-04-19T13:34:12.377Z,4.5
2023-04-19T13:37:12.374Z,5.1
2023-04-19T13:40:19.065Z,6.1
2023-04-19T13:43:12.394Z,4.3
2023-04-19T13:46:12.411Z,4.3
2023-04-19T13:49:12.399Z,4.1
2023-04-19T13:52:12.397Z,4.4
2023-04-19T13:55:12.430Z,5.8
2023-04-19T13:58:12.430Z,5.9
2023-04-19T14:01:12.438Z,4.3
2023-04-19T14:04:12.677Z,5
2023-04-19T14:07:12.415Z,5.6
2023-04-19T14:10:12.425Z,5.6
2023-04-19T14:13:12.440Z,6.4
2023-04-19T14:16:12.473Z,5.5
2023-04-19T14:19:12.439Z,5.1
2023-04-19T14:22:12.433Z,6.4
2023-04-19T14:25:12.427Z,4.4
2023-04-19T14:28:12.448Z,6.6
2023-04-19T14:31:12.433Z,4.8
2023-04-19T14:34:12.429Z,7.5
2023-04-19T14:37:12.442Z,6
2023-04-19T14:40:12.459Z,6.4
2023-04-19T14:43:12.458Z,5
2023-04-19T14:46:12.480Z,5.1
2023-04-19T14:49:12.454Z,5.1
2023-04-19T14:52:12.464Z,5.6
2023-04-19T14:55:12.453Z,5.4
2023-04-19T14:58:12.456Z,6
2023-04-19T15:01:12.458Z,6
2023-04-19T15:04:12.575Z,7.4
2023-04-19T15:07:12.453Z,4.5
2023-04-19T15:10:12.454Z,6.8
2023-04-19T15:13:12.518Z,4.6
2023-04-19T15:16:12.480Z,7.3
2023-04-19T15:19:12.467Z,5.3
2023-04-19T15:22:12.468Z,5.1
2023-04-19T15:25:12.463Z,6.3
2023-04-19T15:28:12.479Z,5.1
2023-04-19T15:31:12.497Z,6.4
2023-04-19T15:34:12.469Z,7.3
2023-04-19T15:37:12.467Z,6.4
2023-04-19T15:40:12.470Z,5.5
2023-04-19T15:43:12.477Z,6.2
2023-04-19T15:46:12.487Z,5.4
2023-04-19T15:49:12.510Z,7.5
2023-04-19T15:52:12.471Z,4.9
2023-04-19T15:55:12.475Z,6.5
2023-04-19T15:58:12.488Z,4.6
2023-04-19T16:01:12.513Z,5.9
2023-04-19T16:04:12.691Z,6.5
2023-04-19T16:07:12.481Z,6.8
2023-04-19T16:10:12.486Z,6.2
2023-04-19T16:13:12.515Z,6.4
2023-04-19T16:16:12.493Z,6.4
2023-04-19T16:19:12.494Z,6.2
2023-04-19T16:22:12.495Z,6.4
2023-04-19T16:25:12.491Z,5.1
2023-04-19T16:28:12.512Z,6.3
2023-04-19T16:31:12.492Z,5.9
2023-04-19T16:34:12.511Z,7.3
2023-04-19T16:37:12.506Z,5.3
2023-04-19T16:40:12.496Z,6.2
2023-04-19T16:43:12.521Z,5.7
2023-04-19T16:46:12.516Z,5.2
2023-04-19T16:49:12.536Z,7.6
2023-04-19T16:52:12.519Z,5.3
2023-04-19T16:55:12.519Z,5.5
2023-04-19T16:58:12.532Z,5.4
2023-04-19T17:01:12.542Z,5.9
2023-04-19T17:04:12.629Z,5.8
2023-04-19T17:07:12.538Z,5.9
2023-04-19T17:10:12.555Z,5.5
2023-04-19T17:13:12.553Z,6.1
2023-04-19T17:16:12.567Z,5.8
2023-04-19T17:19:12.555Z,5.4
2023-04-19T17:22:12.557Z,7
2023-04-19T17:25:12.536Z,5.6
2023-04-19T17:28:12.569Z,8.7
2023-04-19T17:31:12.577Z,6
2023-04-19T17:34:12.545Z,6
2023-04-19T17:37:12.605Z,5.6
2023-04-19T17:40:12.571Z,4.7
2023-04-19T17:43:12.579Z,7.7
2023-04-19T17:46:12.638Z,4.7
2023-04-19T17:49:12.579Z,7
2023-04-19T17:52:12.570Z,5
2023-04-19T17:55:12.591Z,4.3
2023-04-19T17:58:12.591Z,5.4
2023-04-19T18:01:12.607Z,7.3
2023-04-19T18:04:12.769Z,5.3
2023-04-19T18:07:12.599Z,5.6
2023-04-19T18:10:12.611Z,5.6
2023-04-19T18:13:12.622Z,5.8
2023-04-19T18:16:12.624Z,5
2023-04-19T18:19:12.611Z,7.5
2023-04-19T18:22:12.613Z,6.2
2023-04-19T18:25:12.601Z,8.2
2023-04-19T18:28:12.626Z,6.2
2023-04-19T18:31:12.621Z,7.5
2023-04-19T18:34:12.753Z,7.4
2023-04-19T18:37:12.631Z,8.1
2023-04-19T18:40:12.631Z,7.9
2023-04-19T18:43:12.647Z,8.4
2023-04-19T18:46:12.658Z,8.7
2023-04-19T18:49:12.645Z,7.4
2023-04-19T18:52:12.646Z,8.7
2023-04-19T18:55:12.654Z,7.8
2023-04-19T18:58:12.662Z,8.1
2023-04-19T19:01:12.668Z,8.5
2023-04-19T19:04:33.864Z,9.6
2023-04-19T19:07:27.584Z,8
2023-04-19T19:13:12.697Z,7.9
2023-04-19T19:16:12.735Z,8.6
2023-04-19T19:19:12.691Z,9.2
2023-04-19T19:22:23.047Z,8.3
2023-04-19T19:25:12.703Z,8.8
2023-04-19T19:28:12.733Z,9.1
2023-04-19T19:31:12.758Z,9
2023-04-19T19:34:22.484Z,7.9
2023-04-19T19:37:12.717Z,8.6
2023-04-19T19:40:12.725Z,9
2023-04-19T19:43:12.733Z,8.6
2023-04-19T19:46:13.854Z,8.3
2023-04-19T19:49:13.221Z,8.1
2023-04-19T19:52:12.744Z,6.9
2023-04-19T19:55:12.753Z,8.1
2023-04-19T19:58:35.224Z,8.7
2023-04-19T20:01:12.762Z,7.8
2023-04-19T20:04:12.880Z,8.4
2023-04-19T20:07:25.737Z,7.7
2023-04-19T20:10:12.780Z,7.5
2023-04-19T20:13:12.800Z,8.6
2023-04-19T20:16:12.804Z,7.2
2023-04-19T20:19:12.781Z,7.7
2023-04-19T20:22:12.790Z,6.1
2023-04-19T20:25:12.796Z,7
2023-04-19T20:28:12.803Z,5.9
2023-04-19T20:31:12.800Z,8.8
2023-04-19T20:34:12.807Z,6.8
2023-04-19T20:37:12.820Z,7.6
2023-04-19T20:40:12.821Z,7
2023-04-19T20:43:12.857Z,5.4
2023-04-19T20:46:12.890Z,7.3
2023-04-19T20:49:12.845Z,6.9
2023-04-19T20:52:12.857Z,6.8
2023-04-19T20:55:12.868Z,6.6
2023-04-19T20:58:12.871Z,7.3
2023-04-19T21:01:12.876Z,7.8
2023-04-19T21:04:12.962Z,8.4
2023-04-19T21:07:12.883Z,7
2023-04-19T21:10:12.893Z,9.5
2023-04-19T21:13:13.048Z,8.5
2023-04-19T21:16:12.955Z,7.6
2023-04-19T21:19:12.910Z,8.2
2023-04-19T21:22:12.898Z,8.6
2023-04-19T21:25:12.934Z,7.6
2023-04-19T21:28:12.937Z,8.4
2023-04-19T21:31:12.952Z,8.8
2023-04-19T21:34:12.946Z,8.8
2023-04-19T21:37:12.960Z,8.2
2023-04-19T21:40:12.966Z,10.3
2023-04-19T21:43:12.984Z,11.1
2023-04-19T21:46:12.999Z,9
2023-04-19T21:49:12.985Z,11.4
2023-04-19T21:52:13.002Z,8.9
2023-04-19T21:55:13.008Z,9.4
2023-04-19T21:58:13.024Z,10.1
2023-04-19T22:01:13.052Z,9.7
2023-04-19T22:04:13.045Z,11.1
2023-04-19T22:07:13.033Z,12.1
2023-04-19T22:10:13.043Z,10.2
2023-04-19T22:13:13.076Z,11.3
2023-04-19T22:16:13.057Z,10.2
2023-04-19T22:19:13.063Z,11
2023-04-19T22:22:13.075Z,9.2
2023-04-19T22:25:13.081Z,10.3
2023-04-19T22:28:13.112Z,9.3
2023-04-19T22:31:13.098Z,9.2
2023-04-19T22:34:13.110Z,8.4
2023-04-19T22:37:13.115Z,8.9
2023-04-19T22:40:13.133Z,7.7
2023-04-19T22:43:13.142Z,7.1
2023-04-19T22:46:13.165Z,8.3
2023-04-19T22:49:13.151Z,8
2023-04-19T22:52:13.128Z,8.7
2023-04-19T22:55:13.205Z,6
2023-04-19T22:58:13.191Z,7.8
2023-04-19T23:01:13.183Z,7.9
2023-04-19T23:04:13.180Z,8.4
2023-04-19T23:07:13.187Z,8.5
2023-04-19T23:10:13.186Z,9.8
2023-04-19T23:13:13.208Z,9.1
2023-04-19T23:16:13.221Z,8.9
2023-04-19T23:19:13.207Z,9.7
2023-04-19T23:22:13.215Z,9.4
2023-04-19T23:25:13.214Z,9.8
2023-04-19T23:28:13.231Z,11.2
2023-04-19T23:31:13.277Z,9.7
2023-04-19T23:34:13.236Z,10
2023-04-19T23:37:13.232Z,12.4
2023-04-19T23:40:13.249Z,10.8
2023-04-19T23:43:13.260Z,11.9
2023-04-19T23:46:13.287Z,12.3
2023-04-19T23:49:13.253Z,12
2023-04-19T23:52:13.264Z,13.4
2023-04-19T23:55:13.272Z,13.3
2023-04-19T23:58:13.281Z,13.1
